sensor_id;sensor_type;location;lat;lon;timestamp;noise_LAeq;noise_LA_min;noise_LA_max;noise_LA01;noise_LA95
72415;Laerm;60995;52.154;4.498;2023-06-14T00:00:35;44.19;36.45;58.41;;
72415;Laerm;60995;52.154;4.498;2023-06-14T00:02:56;44.41;36.59;55.95;;
72415;Laerm;60995;52.154;4.498;2023-06-14T00:05:15;42.37;35.98;51.74;;
72415;Laerm;60995;52.154;4.498;2023-06-14T00:07:40;42.57;36.38;52.46;;
72415;Laerm;60995;52.154;4.498;2023-06-14T00:09:59;43.86;36.82;54.45;;
72415;Laerm;60995;52.154;4.498;2023-06-14T00:12:16;44.48;36.70;52.74;;
72415;Laerm;60995;52.154;4.498;2023-06-14T00:14:32;43.05;36.24;52.21;;
72415;Laerm;60995;52.154;4.498;2023-06-14T00:16:48;42.62;36.47;57.56;;
72415;Laerm;60995;52.154;4.498;2023-06-14T00:19:04;42.58;36.21;52.26;;
72415;Laerm;60995;52.154;4.498;2023-06-14T00:21:21;42.95;36.07;53.73;;
72415;Laerm;60995;52.154;4.498;2023-06-14T00:23:38;42.61;36.35;52.36;;
72415;Laerm;60995;52.154;4.498;2023-06-14T00:25:54;44.58;36.44;54.96;;
72415;Laerm;60995;52.154;4.498;2023-06-14T00:28:10;43.07;36.68;51.92;;
72415;Laerm;60995;52.154;4.498;2023-06-14T00:30:26;42.85;37.07;52.31;;
72415;Laerm;60995;52.154;4.498;2023-06-14T00:32:47;43.95;36.97;52.65;;
72415;Laerm;60995;52.154;4.498;2023-06-14T00:35:04;43.09;36.40;52.49;;
72415;Laerm;60995;52.154;4.498;2023-06-14T00:37:21;42.80;36.77;51.98;;
72415;Laerm;60995;52.154;4.498;2023-06-14T00:39:38;42.88;36.29;52.92;;
72415;Laerm;60995;52.154;4.498;2023-06-14T00:41:54;42.27;36.12;52.34;;
72415;Laerm;60995;52.154;4.498;2023-06-14T00:44:13;42.32;36.19;52.28;;
72415;Laerm;60995;52.154;4.498;2023-06-14T00:46:31;42.83;36.44;52.89;;
72415;Laerm;60995;52.154;4.498;2023-06-14T00:48:48;42.63;36.19;54.15;;
72415;Laerm;60995;52.154;4.498;2023-06-14T00:51:05;42.71;36.40;52.33;;
72415;Laerm;60995;52.154;4.498;2023-06-14T00:53:21;43.35;36.18;52.81;;
72415;Laerm;60995;52.154;4.498;2023-06-14T00:55:39;42.92;36.93;54.75;;
72415;Laerm;60995;52.154;4.498;2023-06-14T00:57:55;43.38;36.88;53.62;;
72415;Laerm;60995;52.154;4.498;2023-06-14T01:00:13;42.76;36.86;52.46;;
72415;Laerm;60995;52.154;4.498;2023-06-14T01:02:31;54.35;36.93;73.04;;
72415;Laerm;60995;52.154;4.498;2023-06-14T01:04:49;50.04;37.70;66.07;;
72415;Laerm;60995;52.154;4.498;2023-06-14T01:15:12;44.20;36.46;54.62;;
72415;Laerm;60995;52.154;4.498;2023-06-14T01:17:31;44.78;37.00;59.16;;
72415;Laerm;60995;52.154;4.498;2023-06-14T01:19:47;43.32;36.56;57.13;;
72415;Laerm;60995;52.154;4.498;2023-06-14T01:22:04;44.15;36.97;54.70;;
72415;Laerm;60995;52.154;4.498;2023-06-14T01:24:21;43.99;36.76;64.58;;
72415;Laerm;60995;52.154;4.498;2023-06-14T01:26:41;42.83;36.89;54.43;;
72415;Laerm;60995;52.154;4.498;2023-06-14T01:29:01;44.03;36.59;60.16;;
72415;Laerm;60995;52.154;4.498;2023-06-14T01:31:20;42.79;36.68;51.97;;
72415;Laerm;60995;52.154;4.498;2023-06-14T01:33:38;42.97;37.32;52.03;;
72415;Laerm;60995;52.154;4.498;2023-06-14T01:35:56;43.43;37.15;52.77;;
72415;Laerm;60995;52.154;4.498;2023-06-14T01:38:22;45.16;36.66;57.17;;
72415;Laerm;60995;52.154;4.498;2023-06-14T01:40:40;43.16;37.31;52.97;;
72415;Laerm;60995;52.154;4.498;2023-06-14T01:42:59;43.80;37.62;59.76;;
72415;Laerm;60995;52.154;4.498;2023-06-14T01:45:17;45.94;37.04;56.54;;
72415;Laerm;60995;52.154;4.498;2023-06-14T01:47:35;42.76;36.98;52.05;;
72415;Laerm;60995;52.154;4.498;2023-06-14T01:49:52;44.44;37.15;55.53;;
72415;Laerm;60995;52.154;4.498;2023-06-14T01:52:08;42.86;36.89;53.29;;
72415;Laerm;60995;52.154;4.498;2023-06-14T01:54:26;44.03;37.57;56.04;;
72415;Laerm;60995;52.154;4.498;2023-06-14T01:56:43;44.28;37.82;64.83;;
72415;Laerm;60995;52.154;4.498;2023-06-14T01:58:59;43.38;36.12;53.70;;
72415;Laerm;60995;52.154;4.498;2023-06-14T02:01:15;43.21;36.24;53.23;;
72415;Laerm;60995;52.154;4.498;2023-06-14T02:03:32;43.09;37.12;52.79;;
72415;Laerm;60995;52.154;4.498;2023-06-14T02:05:48;44.65;37.46;56.17;;
72415;Laerm;60995;52.154;4.498;2023-06-14T02:08:06;43.69;37.61;54.22;;
72415;Laerm;60995;52.154;4.498;2023-06-14T02:10:22;52.24;38.33;77.11;;
72415;Laerm;60995;52.154;4.498;2023-06-14T02:12:38;43.66;38.17;53.55;;
72415;Laerm;60995;52.154;4.498;2023-06-14T02:14:55;43.60;38.07;59.78;;
72415;Laerm;60995;52.154;4.498;2023-06-14T02:17:12;44.66;37.90;58.44;;
72415;Laerm;60995;52.154;4.498;2023-06-14T02:19:28;44.81;37.80;56.75;;
72415;Laerm;60995;52.154;4.498;2023-06-14T02:21:45;45.02;37.98;57.23;;
72415;Laerm;60995;52.154;4.498;2023-06-14T02:24:02;45.77;37.85;58.55;;
72415;Laerm;60995;52.154;4.498;2023-06-14T02:26:18;45.13;37.08;58.22;;
72415;Laerm;60995;52.154;4.498;2023-06-14T02:28:34;44.03;38.28;53.00;;
72415;Laerm;60995;52.154;4.498;2023-06-14T02:30:51;45.11;38.21;62.40;;
72415;Laerm;60995;52.154;4.498;2023-06-14T02:33:07;45.56;38.30;58.66;;
72415;Laerm;60995;52.154;4.498;2023-06-14T02:35:24;45.14;37.58;58.58;;
72415;Laerm;60995;52.154;4.498;2023-06-14T02:37:42;47.61;38.65;61.34;;
72415;Laerm;60995;52.154;4.498;2023-06-14T02:39:58;45.75;38.08;62.75;;
72415;Laerm;60995;52.154;4.498;2023-06-14T02:42:15;43.95;37.96;56.29;;
72415;Laerm;60995;52.154;4.498;2023-06-14T02:44:31;44.36;37.81;58.32;;
72415;Laerm;60995;52.154;4.498;2023-06-14T02:46:48;44.77;37.81;57.27;;
72415;Laerm;60995;52.154;4.498;2023-06-14T02:49:04;44.36;38.22;55.26;;
72415;Laerm;60995;52.154;4.498;2023-06-14T02:51:21;45.47;37.44;58.31;;
72415;Laerm;60995;52.154;4.498;2023-06-14T02:53:37;44.81;37.45;57.63;;
72415;Laerm;60995;52.154;4.498;2023-06-14T02:55:53;44.73;38.29;56.43;;
72415;Laerm;60995;52.154;4.498;2023-06-14T02:58:11;44.64;38.27;54.76;;
72415;Laerm;60995;52.154;4.498;2023-06-14T03:00:28;43.38;37.07;53.27;;
72415;Laerm;60995;52.154;4.498;2023-06-14T03:02:46;44.88;38.21;60.79;;
72415;Laerm;60995;52.154;4.498;2023-06-14T03:05:03;45.44;37.86;62.47;;
72415;Laerm;60995;52.154;4.498;2023-06-14T03:07:20;44.69;38.13;54.64;;
72415;Laerm;60995;52.154;4.498;2023-06-14T03:09:37;45.24;37.91;53.52;;
72415;Laerm;60995;52.154;4.498;2023-06-14T03:11:54;45.45;38.60;57.70;;
72415;Laerm;60995;52.154;4.498;2023-06-14T03:14:10;45.88;39.46;62.13;;
72415;Laerm;60995;52.154;4.498;2023-06-14T03:16:27;46.39;38.62;62.14;;
72415;Laerm;60995;52.154;4.498;2023-06-14T03:18:45;44.75;39.02;52.83;;
72415;Laerm;60995;52.154;4.498;2023-06-14T03:21:02;46.15;39.22;61.31;;
72415;Laerm;60995;52.154;4.498;2023-06-14T03:23:19;45.49;38.87;56.78;;
72415;Laerm;60995;52.154;4.498;2023-06-14T03:25:35;46.71;39.34;63.59;;
72415;Laerm;60995;52.154;4.498;2023-06-14T03:27:54;50.52;39.47;77.59;;
72415;Laerm;60995;52.154;4.498;2023-06-14T03:30:11;46.53;39.85;54.95;;
72415;Laerm;60995;52.154;4.498;2023-06-14T03:32:27;45.45;39.28;59.80;;
72415;Laerm;60995;52.154;4.498;2023-06-14T03:34:43;46.14;40.25;63.30;;
72415;Laerm;60995;52.154;4.498;2023-06-14T03:37:01;46.35;40.33;57.82;;
72415;Laerm;60995;52.154;4.498;2023-06-14T03:39:17;46.66;40.58;56.89;;
72415;Laerm;60995;52.154;4.498;2023-06-14T03:41:34;47.19;40.23;61.05;;
72415;Laerm;60995;52.154;4.498;2023-06-14T03:43:50;46.10;40.86;57.39;;
72415;Laerm;60995;52.154;4.498;2023-06-14T03:46:07;46.45;40.24;57.71;;
72415;Laerm;60995;52.154;4.498;2023-06-14T03:48:23;45.64;40.24;56.67;;
72415;Laerm;60995;52.154;4.498;2023-06-14T03:50:40;45.25;40.82;52.37;;
72415;Laerm;60995;52.154;4.498;2023-06-14T03:52:56;47.38;41.05;56.79;;
72415;Laerm;60995;52.154;4.498;2023-06-14T03:55:12;47.28;40.54;62.57;;
72415;Laerm;60995;52.154;4.498;2023-06-14T03:57:30;46.40;40.75;57.13;;
72415;Laerm;60995;52.154;4.498;2023-06-14T03:59:46;46.66;41.41;55.66;;
72415;Laerm;60995;52.154;4.498;2023-06-14T04:02:03;46.82;41.09;54.57;;
72415;Laerm;60995;52.154;4.498;2023-06-14T04:04:19;47.01;40.83;53.74;;
72415;Laerm;60995;52.154;4.498;2023-06-14T04:06:37;46.48;41.04;61.11;;
72415;Laerm;60995;52.154;4.498;2023-06-14T04:08:53;47.11;39.89;55.86;;
72415;Laerm;60995;52.154;4.498;2023-06-14T04:11:10;47.87;40.49;58.57;;
72415;Laerm;60995;52.154;4.498;2023-06-14T04:13:26;48.89;42.11;59.30;;
72415;Laerm;60995;52.154;4.498;2023-06-14T04:15:43;48.33;42.27;61.15;;
72415;Laerm;60995;52.154;4.498;2023-06-14T04:18:01;46.95;41.61;56.32;;
72415;Laerm;60995;52.154;4.498;2023-06-14T04:20:18;50.84;41.95;78.37;;
72415;Laerm;60995;52.154;4.498;2023-06-14T04:22:34;49.90;43.04;70.40;;
72415;Laerm;60995;52.154;4.498;2023-06-14T04:24:50;47.79;40.88;62.25;;
72415;Laerm;60995;52.154;4.498;2023-06-14T04:27:08;48.03;41.83;55.85;;
72415;Laerm;60995;52.154;4.498;2023-06-14T04:29:25;48.57;43.09;54.64;;
72415;Laerm;60995;52.154;4.498;2023-06-14T04:31:43;47.95;41.12;67.85;;
72415;Laerm;60995;52.154;4.498;2023-06-14T04:34:00;49.09;42.20;60.09;;
72415;Laerm;60995;52.154;4.498;2023-06-14T04:36:17;53.65;41.83;69.31;;
72415;Laerm;60995;52.154;4.498;2023-06-14T04:38:33;48.60;42.33;61.34;;
72415;Laerm;60995;52.154;4.498;2023-06-14T04:40:50;50.13;42.36;67.82;;
72415;Laerm;60995;52.154;4.498;2023-06-14T04:43:09;50.18;42.75;59.61;;
72415;Laerm;60995;52.154;4.498;2023-06-14T04:45:28;49.90;42.65;60.33;;
72415;Laerm;60995;52.154;4.498;2023-06-14T04:47:47;49.53;42.12;58.45;;
72415;Laerm;60995;52.154;4.498;2023-06-14T04:50:04;48.82;42.77;57.83;;
72415;Laerm;60995;52.154;4.498;2023-06-14T04:52:20;49.74;42.66;60.35;;
72415;Laerm;60995;52.154;4.498;2023-06-14T04:54:37;49.59;41.41;59.55;;
72415;Laerm;60995;52.154;4.498;2023-06-14T04:56:53;49.33;42.94;56.42;;
72415;Laerm;60995;52.154;4.498;2023-06-14T04:59:11;48.64;42.78;57.49;;
72415;Laerm;60995;52.154;4.498;2023-06-14T05:01:27;49.42;41.93;66.83;;
72415;Laerm;60995;52.154;4.498;2023-06-14T05:03:44;48.96;43.14;55.28;;
72415;Laerm;60995;52.154;4.498;2023-06-14T05:06:01;48.77;42.02;57.19;;
72415;Laerm;60995;52.154;4.498;2023-06-14T05:08:17;48.62;42.23;56.29;;
72415;Laerm;60995;52.154;4.498;2023-06-14T05:10:34;49.29;41.40;62.09;;
72415;Laerm;60995;52.154;4.498;2023-06-14T05:12:52;49.48;41.80;62.00;;
72415;Laerm;60995;52.154;4.498;2023-06-14T05:15:09;48.37;42.59;54.64;;
72415;Laerm;60995;52.154;4.498;2023-06-14T05:17:25;49.72;42.46;59.31;;
72415;Laerm;60995;52.154;4.498;2023-06-14T05:19:43;50.58;42.31;60.22;;
72415;Laerm;60995;52.154;4.498;2023-06-14T05:22:00;51.18;43.00;62.48;;
72415;Laerm;60995;52.154;4.498;2023-06-14T05:24:19;51.60;42.54;72.50;;
72415;Laerm;60995;52.154;4.498;2023-06-14T05:26:36;51.11;43.40;67.17;;
72415;Laerm;60995;52.154;4.498;2023-06-14T05:28:52;51.10;44.61;63.82;;
72415;Laerm;60995;52.154;4.498;2023-06-14T05:31:08;50.12;42.56;61.99;;
72415;Laerm;60995;52.154;4.498;2023-06-14T05:33:25;49.89;43.18;62.00;;
72415;Laerm;60995;52.154;4.498;2023-06-14T05:35:41;50.15;41.55;56.87;;
72415;Laerm;60995;52.154;4.498;2023-06-14T05:37:57;50.06;42.60;57.45;;
72415;Laerm;60995;52.154;4.498;2023-06-14T05:40:13;51.11;42.17;67.10;;
72415;Laerm;60995;52.154;4.498;2023-06-14T05:42:30;50.03;42.88;59.62;;
72415;Laerm;60995;52.154;4.498;2023-06-14T05:44:46;50.37;42.74;62.42;;
72415;Laerm;60995;52.154;4.498;2023-06-14T05:47:03;51.71;43.99;65.11;;
72415;Laerm;60995;52.154;4.498;2023-06-14T05:49:19;50.53;43.65;61.73;;
72415;Laerm;60995;52.154;4.498;2023-06-14T05:51:35;50.67;43.33;60.64;;
72415;Laerm;60995;52.154;4.498;2023-06-14T05:53:54;51.19;43.07;61.93;;
72415;Laerm;60995;52.154;4.498;2023-06-14T05:56:10;50.54;42.66;61.96;;
72415;Laerm;60995;52.154;4.498;2023-06-14T05:58:27;51.87;44.49;70.81;;
72415;Laerm;60995;52.154;4.498;2023-06-14T06:00:43;49.68;42.87;58.31;;
72415;Laerm;60995;52.154;4.498;2023-06-14T06:02:59;49.32;41.67;60.40;;
72415;Laerm;60995;52.154;4.498;2023-06-14T06:05:17;50.04;42.19;61.21;;
72415;Laerm;60995;52.154;4.498;2023-06-14T06:07:43;54.76;41.71;85.21;;
72415;Laerm;60995;52.154;4.498;2023-06-14T06:10:02;49.72;41.80;61.03;;
72415;Laerm;60995;52.154;4.498;2023-06-14T06:12:18;49.90;42.29;58.04;;
72415;Laerm;60995;52.154;4.498;2023-06-14T06:14:34;49.72;41.56;57.00;;
72415;Laerm;60995;52.154;4.498;2023-06-14T06:16:51;50.67;43.76;60.11;;
72415;Laerm;60995;52.154;4.498;2023-06-14T06:19:08;52.26;44.41;64.47;;
72415;Laerm;60995;52.154;4.498;2023-06-14T06:21:25;51.12;45.46;57.43;;
72415;Laerm;60995;52.154;4.498;2023-06-14T06:23:41;50.29;44.01;57.67;;
72415;Laerm;60995;52.154;4.498;2023-06-14T06:25:57;51.37;44.25;61.35;;
72415;Laerm;60995;52.154;4.498;2023-06-14T06:28:14;50.98;43.92;58.98;;
72415;Laerm;60995;52.154;4.498;2023-06-14T06:30:30;51.24;43.91;58.48;;
72415;Laerm;60995;52.154;4.498;2023-06-14T06:32:47;51.43;44.44;60.72;;
72415;Laerm;60995;52.154;4.498;2023-06-14T06:35:04;52.07;44.59;60.59;;
72415;Laerm;60995;52.154;4.498;2023-06-14T06:37:22;51.51;44.26;62.56;;
72415;Laerm;60995;52.154;4.498;2023-06-14T06:39:39;52.13;46.04;60.85;;
72415;Laerm;60995;52.154;4.498;2023-06-14T06:41:55;51.74;43.26;63.85;;
72415;Laerm;60995;52.154;4.498;2023-06-14T06:44:11;50.63;42.04;62.55;;
72415;Laerm;60995;52.154;4.498;2023-06-14T06:46:28;52.03;44.48;73.68;;
72415;Laerm;60995;52.154;4.498;2023-06-14T06:48:44;51.83;43.44;64.83;;
72415;Laerm;60995;52.154;4.498;2023-06-14T06:51:01;52.15;44.84;62.49;;
72415;Laerm;60995;52.154;4.498;2023-06-14T06:53:17;55.29;44.20;70.61;;
72415;Laerm;60995;52.154;4.498;2023-06-14T06:55:34;51.75;43.07;68.06;;
72415;Laerm;60995;52.154;4.498;2023-06-14T06:57:51;50.69;43.27;65.00;;
72415;Laerm;60995;52.154;4.498;2023-06-14T07:00:09;49.78;42.18;59.43;;
72415;Laerm;60995;52.154;4.498;2023-06-14T07:02:25;50.62;42.88;58.79;;
72415;Laerm;60995;52.154;4.498;2023-06-14T07:04:42;49.80;39.96;57.82;;
72415;Laerm;60995;52.154;4.498;2023-06-14T07:06:58;49.65;39.66;62.51;;
72415;Laerm;60995;52.154;4.498;2023-06-14T07:09:15;48.79;40.09;58.62;;
72415;Laerm;60995;52.154;4.498;2023-06-14T07:11:32;51.13;39.11;64.05;;
72415;Laerm;60995;52.154;4.498;2023-06-14T07:13:48;52.08;41.91;64.81;;
72415;Laerm;60995;52.154;4.498;2023-06-14T07:16:04;49.53;39.79;60.16;;
72415;Laerm;60995;52.154;4.498;2023-06-14T07:18:22;48.68;39.97;58.48;;
72415;Laerm;60995;52.154;4.498;2023-06-14T07:20:38;50.16;39.69;59.65;;
72415;Laerm;60995;52.154;4.498;2023-06-14T07:22:55;49.34;38.96;58.24;;
72415;Laerm;60995;52.154;4.498;2023-06-14T07:25:12;50.64;39.96;60.90;;
72415;Laerm;60995;52.154;4.498;2023-06-14T07:27:31;49.94;39.82;59.87;;
72415;Laerm;60995;52.154;4.498;2023-06-14T07:29:48;49.92;41.93;60.21;;
72415;Laerm;60995;52.154;4.498;2023-06-14T07:32:05;50.68;40.11;64.04;;
72415;Laerm;60995;52.154;4.498;2023-06-14T07:34:22;50.12;39.87;60.88;;
72415;Laerm;60995;52.154;4.498;2023-06-14T07:36:38;49.61;40.83;62.42;;
72415;Laerm;60995;52.154;4.498;2023-06-14T07:38:54;50.17;40.71;63.73;;
72415;Laerm;60995;52.154;4.498;2023-06-14T07:41:11;64.94;44.34;82.67;;
72415;Laerm;60995;52.154;4.498;2023-06-14T07:43:27;51.18;40.94;71.79;;
72415;Laerm;60995;52.154;4.498;2023-06-14T07:45:44;50.34;40.18;70.11;;
72415;Laerm;60995;52.154;4.498;2023-06-14T07:48:00;53.83;40.97;66.36;;
72415;Laerm;60995;52.154;4.498;2023-06-14T07:50:16;52.82;41.43;65.87;;
72415;Laerm;60995;52.154;4.498;2023-06-14T07:52:33;51.29;41.81;66.26;;
72415;Laerm;60995;52.154;4.498;2023-06-14T07:54:49;49.93;41.42;59.81;;
72415;Laerm;60995;52.154;4.498;2023-06-14T07:57:05;51.53;44.08;64.69;;
72415;Laerm;60995;52.154;4.498;2023-06-14T07:59:22;50.95;41.46;65.19;;
72415;Laerm;60995;52.154;4.498;2023-06-14T08:01:38;50.94;40.67;67.37;;
72415;Laerm;60995;52.154;4.498;2023-06-14T08:03:55;50.64;41.54;63.84;;
72415;Laerm;60995;52.154;4.498;2023-06-14T08:06:12;50.19;41.13;60.59;;
72415;Laerm;60995;52.154;4.498;2023-06-14T08:08:28;50.10;40.99;62.82;;
72415;Laerm;60995;52.154;4.498;2023-06-14T08:10:44;50.76;41.07;69.09;;
72415;Laerm;60995;52.154;4.498;2023-06-14T08:13:01;51.16;40.55;63.59;;
72415;Laerm;60995;52.154;4.498;2023-06-14T08:15:18;51.32;41.88;66.22;;
72415;Laerm;60995;52.154;4.498;2023-06-14T08:17:34;56.29;42.75;70.54;;
72415;Laerm;60995;52.154;4.498;2023-06-14T08:19:50;52.46;42.06;68.04;;
72415;Laerm;60995;52.154;4.498;2023-06-14T08:22:07;51.87;43.07;69.24;;
72415;Laerm;60995;52.154;4.498;2023-06-14T08:24:24;52.44;43.01;62.99;;
72415;Laerm;60995;52.154;4.498;2023-06-14T08:26:41;51.74;44.18;64.55;;
72415;Laerm;60995;52.154;4.498;2023-06-14T08:28:57;50.32;41.65;62.74;;
72415;Laerm;60995;52.154;4.498;2023-06-14T08:31:13;49.67;39.92;60.91;;
72415;Laerm;60995;52.154;4.498;2023-06-14T08:33:30;52.97;41.36;70.40;;
72415;Laerm;60995;52.154;4.498;2023-06-14T08:35:49;63.23;42.81;79.25;;
72415;Laerm;60995;52.154;4.498;2023-06-14T08:38:05;51.80;41.05;64.66;;
72415;Laerm;60995;52.154;4.498;2023-06-14T08:40:23;55.66;43.76;74.17;;
72415;Laerm;60995;52.154;4.498;2023-06-14T08:42:40;52.05;44.61;62.50;;
72415;Laerm;60995;52.154;4.498;2023-06-14T08:44:57;54.24;42.62;76.28;;
72415;Laerm;60995;52.154;4.498;2023-06-14T08:47:15;54.19;43.00;75.28;;
72415;Laerm;60995;52.154;4.498;2023-06-14T08:49:37;50.26;41.45;59.66;;
72415;Laerm;60995;52.154;4.498;2023-06-14T08:52:00;50.06;41.88;59.55;;
72415;Laerm;60995;52.154;4.498;2023-06-14T08:54:18;51.81;42.76;64.07;;
72415;Laerm;60995;52.154;4.498;2023-06-14T08:56:38;51.27;42.04;63.88;;
72415;Laerm;60995;52.154;4.498;2023-06-14T08:58:58;51.57;43.15;61.42;;
72415;Laerm;60995;52.154;4.498;2023-06-14T09:01:20;51.34;42.68;62.23;;
72415;Laerm;60995;52.154;4.498;2023-06-14T09:03:37;51.58;41.41;66.18;;
72415;Laerm;60995;52.154;4.498;2023-06-14T09:05:57;50.89;42.98;65.34;;
72415;Laerm;60995;52.154;4.498;2023-06-14T09:08:15;50.27;41.77;70.27;;
72415;Laerm;60995;52.154;4.498;2023-06-14T09:10:33;50.04;40.33;63.17;;
72415;Laerm;60995;52.154;4.498;2023-06-14T09:12:53;50.77;41.07;64.96;;
72415;Laerm;60995;52.154;4.498;2023-06-14T09:15:10;57.82;42.98;77.99;;
72415;Laerm;60995;52.154;4.498;2023-06-14T09:17:26;51.92;42.79;60.75;;
72415;Laerm;60995;52.154;4.498;2023-06-14T09:19:45;53.04;41.86;69.71;;
72415;Laerm;60995;52.154;4.498;2023-06-14T09:22:05;52.15;41.79;67.32;;
72415;Laerm;60995;52.154;4.498;2023-06-14T09:24:24;51.13;44.04;64.01;;
72415;Laerm;60995;52.154;4.498;2023-06-14T09:26:42;51.57;43.58;61.29;;
72415;Laerm;60995;52.154;4.498;2023-06-14T09:28:58;52.14;43.12;67.72;;
72415;Laerm;60995;52.154;4.498;2023-06-14T09:31:17;54.42;43.27;70.83;;
72415;Laerm;60995;52.154;4.498;2023-06-14T09:33:34;50.93;42.16;61.79;;
72415;Laerm;60995;52.154;4.498;2023-06-14T09:35:56;51.56;41.33;62.86;;
72415;Laerm;60995;52.154;4.498;2023-06-14T09:38:13;51.44;41.33;60.34;;
72415;Laerm;60995;52.154;4.498;2023-06-14T09:40:34;53.77;44.03;74.20;;
72415;Laerm;60995;52.154;4.498;2023-06-14T09:42:52;51.60;43.01;64.52;;
72415;Laerm;60995;52.154;4.498;2023-06-14T09:45:10;51.45;42.96;62.43;;
72415;Laerm;60995;52.154;4.498;2023-06-14T09:47:27;52.27;44.19;64.50;;
72415;Laerm;60995;52.154;4.498;2023-06-14T09:49:44;52.58;44.62;69.04;;
72415;Laerm;60995;52.154;4.498;2023-06-14T09:52:01;50.94;43.19;60.41;;
72415;Laerm;60995;52.154;4.498;2023-06-14T09:54:22;51.74;41.30;70.02;;
72415;Laerm;60995;52.154;4.498;2023-06-14T09:56:47;52.22;43.42;67.75;;
72415;Laerm;60995;52.154;4.498;2023-06-14T09:59:05;52.47;43.86;68.68;;
72415;Laerm;60995;52.154;4.498;2023-06-14T10:01:30;52.55;43.83;63.15;;
72415;Laerm;60995;52.154;4.498;2023-06-14T10:03:50;52.25;42.94;71.75;;
72415;Laerm;60995;52.154;4.498;2023-06-14T10:06:11;51.09;41.27;66.32;;
72415;Laerm;60995;52.154;4.498;2023-06-14T10:08:31;52.71;41.98;72.99;;
72415;Laerm;60995;52.154;4.498;2023-06-14T10:10:50;52.41;43.02;72.79;;
72415;Laerm;60995;52.154;4.498;2023-06-14T10:13:07;64.22;44.08;79.77;;
72415;Laerm;60995;52.154;4.498;2023-06-14T10:18:27;51.30;42.61;68.69;;
72415;Laerm;60995;52.154;4.498;2023-06-14T10:20:53;51.04;41.47;68.14;;
72415;Laerm;60995;52.154;4.498;2023-06-14T10:23:22;55.42;44.67;68.77;;
72415;Laerm;60995;52.154;4.498;2023-06-14T10:25:39;51.07;42.10;62.10;;
72415;Laerm;60995;52.154;4.498;2023-06-14T10:28:19;60.26;42.65;75.56;;
72415;Laerm;60995;52.154;4.498;2023-06-14T10:30:36;59.54;41.14;84.28;;
72415;Laerm;60995;52.154;4.498;2023-06-14T10:33:07;53.28;42.22;70.57;;
72415;Laerm;60995;52.154;4.498;2023-06-14T10:35:23;52.09;41.75;66.12;;
72415;Laerm;60995;52.154;4.498;2023-06-14T10:37:39;56.74;44.11;71.15;;
72415;Laerm;60995;52.154;4.498;2023-06-14T10:39:56;58.33;42.21;74.37;;
72415;Laerm;60995;52.154;4.498;2023-06-14T10:42:14;51.61;41.60;71.02;;
72415;Laerm;60995;52.154;4.498;2023-06-14T10:44:33;50.35;41.86;61.46;;
72415;Laerm;60995;52.154;4.498;2023-06-14T10:46:55;51.41;42.86;67.18;;
72415;Laerm;60995;52.154;4.498;2023-06-14T10:49:17;51.35;42.45;68.77;;
72415;Laerm;60995;52.154;4.498;2023-06-14T10:51:43;51.00;41.25;71.69;;
72415;Laerm;60995;52.154;4.498;2023-06-14T10:54:12;52.76;42.53;76.87;;
72415;Laerm;60995;52.154;4.498;2023-06-14T10:56:32;52.31;42.29;71.95;;
72415;Laerm;60995;52.154;4.498;2023-06-14T10:58:49;51.14;42.13;67.75;;
72415;Laerm;60995;52.154;4.498;2023-06-14T11:01:06;51.18;40.97;60.98;;
72415;Laerm;60995;52.154;4.498;2023-06-14T11:03:51;51.09;40.57;66.55;;
72415;Laerm;60995;52.154;4.498;2023-06-14T11:06:15;53.02;42.59;68.57;;
72415;Laerm;60995;52.154;4.498;2023-06-14T11:09:10;53.18;42.50;76.83;;
72415;Laerm;60995;52.154;4.498;2023-06-14T11:11:36;52.40;42.97;67.99;;
72415;Laerm;60995;52.154;4.498;2023-06-14T11:13:54;52.67;40.67;78.20;;
72415;Laerm;60995;52.154;4.498;2023-06-14T11:16:18;52.05;42.12;69.38;;
72415;Laerm;60995;52.154;4.498;2023-06-14T11:18:36;52.13;42.16;71.44;;
72415;Laerm;60995;52.154;4.498;2023-06-14T11:20:53;51.08;41.66;71.00;;
72415;Laerm;60995;52.154;4.498;2023-06-14T11:23:10;50.40;41.95;59.98;;
72415;Laerm;60995;52.154;4.498;2023-06-14T11:25:29;51.37;42.21;68.88;;
72415;Laerm;60995;52.154;4.498;2023-06-14T11:27:48;50.94;42.06;65.21;;
72415;Laerm;60995;52.154;4.498;2023-06-14T11:30:07;52.15;42.52;68.48;;
72415;Laerm;60995;52.154;4.498;2023-06-14T11:32:25;52.34;44.03;65.07;;
72415;Laerm;60995;52.154;4.498;2023-06-14T11:34:41;50.79;42.85;59.22;;
72415;Laerm;60995;52.154;4.498;2023-06-14T11:36:59;50.51;41.10;59.28;;
72415;Laerm;60995;52.154;4.498;2023-06-14T11:39:16;52.33;42.23;66.52;;
72415;Laerm;60995;52.154;4.498;2023-06-14T11:41:38;51.78;41.87;64.50;;
72415;Laerm;60995;52.154;4.498;2023-06-14T11:43:54;51.14;41.18;62.80;;
72415;Laerm;60995;52.154;4.498;2023-06-14T11:46:14;50.09;41.54;65.06;;
72415;Laerm;60995;52.154;4.498;2023-06-14T11:48:40;51.34;41.75;61.94;;
72415;Laerm;60995;52.154;4.498;2023-06-14T11:50:59;54.35;42.28;73.45;;
72415;Laerm;60995;52.154;4.498;2023-06-14T11:53:16;50.69;40.95;63.00;;
72415;Laerm;60995;52.154;4.498;2023-06-14T11:55:39;52.77;44.27;68.61;;
72415;Laerm;60995;52.154;4.498;2023-06-14T11:57:56;51.96;41.61;66.21;;
72415;Laerm;60995;52.154;4.498;2023-06-14T12:00:14;50.80;42.08;65.09;;
72415;Laerm;60995;52.154;4.498;2023-06-14T12:02:31;50.51;40.96;63.10;;
72415;Laerm;60995;52.154;4.498;2023-06-14T12:04:48;49.64;40.46;59.20;;
72415;Laerm;60995;52.154;4.498;2023-06-14T12:07:13;60.97;41.05;79.71;;
72415;Laerm;60995;52.154;4.498;2023-06-14T12:09:31;50.23;41.93;59.54;;
72415;Laerm;60995;52.154;4.498;2023-06-14T12:11:47;54.00;41.77;70.20;;
72415;Laerm;60995;52.154;4.498;2023-06-14T12:14:05;51.81;43.63;64.13;;
72415;Laerm;60995;52.154;4.498;2023-06-14T12:16:22;51.07;42.37;64.32;;
72415;Laerm;60995;52.154;4.498;2023-06-14T12:18:46;52.38;41.54;70.15;;
72415;Laerm;60995;52.154;4.498;2023-06-14T12:21:07;54.94;41.75;75.32;;
72415;Laerm;60995;52.154;4.498;2023-06-14T12:23:25;51.87;42.34;73.09;;
72415;Laerm;60995;52.154;4.498;2023-06-14T12:25:42;52.12;43.31;63.71;;
72415;Laerm;60995;52.154;4.498;2023-06-14T12:28:10;52.04;40.74;70.87;;
72415;Laerm;60995;52.154;4.498;2023-06-14T12:30:26;51.75;41.41;67.95;;
72415;Laerm;60995;52.154;4.498;2023-06-14T12:32:42;52.51;41.13;67.03;;
72415;Laerm;60995;52.154;4.498;2023-06-14T12:35:00;50.66;41.79;62.05;;
72415;Laerm;60995;52.154;4.498;2023-06-14T12:37:16;54.55;42.23;69.75;;
72415;Laerm;60995;52.154;4.498;2023-06-14T12:39:33;53.02;42.22;64.42;;
72415;Laerm;60995;52.154;4.498;2023-06-14T12:41:49;52.38;43.10;72.95;;
72415;Laerm;60995;52.154;4.498;2023-06-14T12:44:05;57.58;41.28;82.25;;
72415;Laerm;60995;52.154;4.498;2023-06-14T12:46:22;51.53;42.60;70.05;;
72415;Laerm;60995;52.154;4.498;2023-06-14T12:48:38;50.79;42.68;62.84;;
72415;Laerm;60995;52.154;4.498;2023-06-14T12:50:54;53.71;43.17;72.69;;
72415;Laerm;60995;52.154;4.498;2023-06-14T12:53:10;48.41;40.13;59.52;;
72415;Laerm;60995;52.154;4.498;2023-06-14T12:55:27;54.75;42.43;69.30;;
72415;Laerm;60995;52.154;4.498;2023-06-14T12:57:43;59.72;43.08;76.20;;
72415;Laerm;60995;52.154;4.498;2023-06-14T13:00:00;49.13;40.72;58.49;;
72415;Laerm;60995;52.154;4.498;2023-06-14T13:02:19;51.63;42.22;75.40;;